Página principal
METAR-TAF:

METAR-TAF

Aeroportos :

Anaktuvuk Pass, Alasca, Estados Unidos

latitude: 68-08-01N, longitude: 151-44-36W, altura: 641 m

Observação actual do tempo

O boletim foi feito há 1 hora e 0 minutos, às 18:56 UTC
Vento 14 kt de nordeste
Temperatura 12°C
Humidade 50%
Pressão 1018 hPa
Visibilidade: 16.1 km
Céu limpo

METAR: PAKP 201856Z AUTO 05014KT 10SM CLR 12/02 A3006 RMK AO2 SLP202 T01220022

Hora: 11:56 (19:56 UTC)


TAF: em falta

Observações e previsões do tempo de mais de 4000 aeroportos (mensagens METAR e TAF).

As estações disponíveis são os pontos amarelos e vermelhos sobre o mapa.

Mova o rato sobre o mapa para ver o nome da estação.

Depois clique no ponto para visualizar as observações e previsões meteorológicas.

Para alterar o mapa : clique nos botões verdes com uma cruz preta para aumentar o zoom; no botão verde com uma pitada de zoom; ou nas setas verdes para mapas adjacentes.


METAR-TAF: